sensor_id;sensor_type;location;lat;lon;timestamp;temperature;humidity
24450;DHT22;13349;50.984;5.822;2022-08-23T00:02:20;16.70;1.00
24450;DHT22;13349;50.984;5.822;2022-08-23T00:04:48;16.70;1.00
24450;DHT22;13349;50.984;5.822;2022-08-23T00:07:15;16.70;58.90
24450;DHT22;13349;50.984;5.822;2022-08-23T00:09:42;16.70;90.20
24450;DHT22;13349;50.984;5.822;2022-08-23T00:12:14;16.70;76.10
24450;DHT22;13349;50.984;5.822;2022-08-23T00:14:42;16.50;99.90
24450;DHT22;13349;50.984;5.822;2022-08-23T00:17:10;16.50;1.00
24450;DHT22;13349;50.984;5.822;2022-08-23T00:19:39;16.50;1.00
24450;DHT22;13349;50.984;5.822;2022-08-23T00:22:07;16.40;1.00
24450;DHT22;13349;50.984;5.822;2022-08-23T00:24:35;16.40;1.00
24450;DHT22;13349;50.984;5.822;2022-08-23T00:27:04;16.40;1.00
24450;DHT22;13349;50.984;5.822;2022-08-23T00:29:37;16.30;1.00
24450;DHT22;13349;50.984;5.822;2022-08-23T00:32:05;16.30;1.00
24450;DHT22;13349;50.984;5.822;2022-08-23T00:34:34;16.20;99.90
24450;DHT22;13349;50.984;5.822;2022-08-23T00:37:02;16.20;99.90
24450;DHT22;13349;50.984;5.822;2022-08-23T00:39:29;16.10;99.90
24450;DHT22;13349;50.984;5.822;2022-08-23T00:41:58;16.20;99.90
24450;DHT22;13349;50.984;5.822;2022-08-23T00:44:30;16.20;1.00
24450;DHT22;13349;50.984;5.822;2022-08-23T00:47:17;16.20;1.00
24450;DHT22;13349;50.984;5.822;2022-08-23T00:50:26;16.30;1.00
24450;DHT22;13349;50.984;5.822;2022-08-23T00:53:04;16.20;1.00
24450;DHT22;13349;50.984;5.822;2022-08-23T00:55:33;16.10;1.00
24450;DHT22;13349;50.984;5.822;2022-08-23T00:58:01;16.10;1.00
24450;DHT22;13349;50.984;5.822;2022-08-23T01:00:30;16.10;22.20
24450;DHT22;13349;50.984;5.822;2022-08-23T01:02:58;16.10;99.90
24450;DHT22;13349;50.984;5.822;2022-08-23T01:05:32;16.00;99.90
24450;DHT22;13349;50.984;5.822;2022-08-23T01:08:02;16.10;1.00
24450;DHT22;13349;50.984;5.822;2022-08-23T01:10:34;16.10;1.00
24450;DHT22;13349;50.984;5.822;2022-08-23T01:13:08;16.30;1.00
24450;DHT22;13349;50.984;5.822;2022-08-23T01:15:39;16.20;1.00
24450;DHT22;13349;50.984;5.822;2022-08-23T01:18:12;16.50;1.00
24450;DHT22;13349;50.984;5.822;2022-08-23T01:20:41;16.50;99.90
24450;DHT22;13349;50.984;5.822;2022-08-23T01:23:28;16.70;1.00
24450;DHT22;13349;50.984;5.822;2022-08-23T01:25:57;16.80;1.00
24450;DHT22;13349;50.984;5.822;2022-08-23T01:28:24;16.90;99.90
24450;DHT22;13349;50.984;5.822;2022-08-23T01:30:52;16.80;99.90
24450;DHT22;13349;50.984;5.822;2022-08-23T01:33:19;16.70;99.90
24450;DHT22;13349;50.984;5.822;2022-08-23T01:35:50;16.70;99.90
24450;DHT22;13349;50.984;5.822;2022-08-23T01:38:20;16.70;99.90
24450;DHT22;13349;50.984;5.822;2022-08-23T01:40:47;16.90;1.00
24450;DHT22;13349;50.984;5.822;2022-08-23T01:43:16;16.80;1.00
24450;DHT22;13349;50.984;5.822;2022-08-23T01:45:45;16.50;1.00
24450;DHT22;13349;50.984;5.822;2022-08-23T01:48:12;16.50;99.90
24450;DHT22;13349;50.984;5.822;2022-08-23T01:50:39;16.90;51.40
24450;DHT22;13349;50.984;5.822;2022-08-23T01:53:07;17.10;1.00
24450;DHT22;13349;50.984;5.822;2022-08-23T01:55:36;17.20;1.00
24450;DHT22;13349;50.984;5.822;2022-08-23T01:58:05;17.20;99.90
24450;DHT22;13349;50.984;5.822;2022-08-23T02:00:35;17.20;99.90
24450;DHT22;13349;50.984;5.822;2022-08-23T02:03:03;17.00;1.00
24450;DHT22;13349;50.984;5.822;2022-08-23T02:05:31;17.00;1.00
24450;DHT22;13349;50.984;5.822;2022-08-23T02:07:59;17.10;99.90
24450;DHT22;13349;50.984;5.822;2022-08-23T02:10:48;17.10;99.90
24450;DHT22;13349;50.984;5.822;2022-08-23T02:13:16;17.00;99.90
24450;DHT22;13349;50.984;5.822;2022-08-23T02:15:43;17.00;99.90
24450;DHT22;13349;50.984;5.822;2022-08-23T02:18:12;17.10;99.90
24450;DHT22;13349;50.984;5.822;2022-08-23T02:20:43;17.30;83.90
24450;DHT22;13349;50.984;5.822;2022-08-23T02:23:11;17.20;99.90
24450;DHT22;13349;50.984;5.822;2022-08-23T02:25:38;17.20;27.30
24450;DHT22;13349;50.984;5.822;2022-08-23T02:28:07;17.40;1.00
24450;DHT22;13349;50.984;5.822;2022-08-23T02:30:35;17.40;1.00
24450;DHT22;13349;50.984;5.822;2022-08-23T02:33:02;17.50;1.00
24450;DHT22;13349;50.984;5.822;2022-08-23T02:35:29;17.50;1.00
24450;DHT22;13349;50.984;5.822;2022-08-23T02:38:01;17.40;1.00
24450;DHT22;13349;50.984;5.822;2022-08-23T02:40:28;17.30;1.00
24450;DHT22;13349;50.984;5.822;2022-08-23T02:42:56;17.50;1.00
24450;DHT22;13349;50.984;5.822;2022-08-23T02:45:26;17.70;1.00
24450;DHT22;13349;50.984;5.822;2022-08-23T02:47:53;17.70;1.00
24450;DHT22;13349;50.984;5.822;2022-08-23T02:50:21;17.90;1.00
24450;DHT22;13349;50.984;5.822;2022-08-23T02:52:48;17.90;1.00
24450;DHT22;13349;50.984;5.822;2022-08-23T02:55:16;17.90;1.00
24450;DHT22;13349;50.984;5.822;2022-08-23T02:57:43;18.10;1.00
24450;DHT22;13349;50.984;5.822;2022-08-23T03:00:12;18.00;1.00
24450;DHT22;13349;50.984;5.822;2022-08-23T03:02:42;18.00;1.00
24450;DHT22;13349;50.984;5.822;2022-08-23T03:05:10;18.00;1.00
24450;DHT22;13349;50.984;5.822;2022-08-23T03:07:38;18.00;1.00
24450;DHT22;13349;50.984;5.822;2022-08-23T03:10:06;18.10;1.00
24450;DHT22;13349;50.984;5.822;2022-08-23T03:12:34;18.10;1.00
24450;DHT22;13349;50.984;5.822;2022-08-23T03:15:01;18.10;1.00
24450;DHT22;13349;50.984;5.822;2022-08-23T03:17:28;18.10;1.00
24450;DHT22;13349;50.984;5.822;2022-08-23T03:19:57;18.10;1.00
24450;DHT22;13349;50.984;5.822;2022-08-23T03:22:24;18.10;1.00
24450;DHT22;13349;50.984;5.822;2022-08-23T03:24:51;18.00;1.00
24450;DHT22;13349;50.984;5.822;2022-08-23T03:27:18;18.00;1.00
24450;DHT22;13349;50.984;5.822;2022-08-23T03:29:45;18.00;1.00
24450;DHT22;13349;50.984;5.822;2022-08-23T03:32:12;18.00;1.00
24450;DHT22;13349;50.984;5.822;2022-08-23T03:34:40;18.00;1.00
24450;DHT22;13349;50.984;5.822;2022-08-23T03:37:09;18.10;1.00
24450;DHT22;13349;50.984;5.822;2022-08-23T03:39:37;18.20;1.00
24450;DHT22;13349;50.984;5.822;2022-08-23T03:42:04;18.20;1.00
24450;DHT22;13349;50.984;5.822;2022-08-23T03:44:32;18.20;1.00
24450;DHT22;13349;50.984;5.822;2022-08-23T03:46:59;18.20;1.00
24450;DHT22;13349;50.984;5.822;2022-08-23T03:49:27;18.20;1.00
24450;DHT22;13349;50.984;5.822;2022-08-23T03:51:54;18.20;1.00
24450;DHT22;13349;50.984;5.822;2022-08-23T03:54:23;18.20;1.00
24450;DHT22;13349;50.984;5.822;2022-08-23T03:56:52;18.30;1.00
24450;DHT22;13349;50.984;5.822;2022-08-23T03:59:20;18.20;1.00
24450;DHT22;13349;50.984;5.822;2022-08-23T04:01:47;18.20;1.00
24450;DHT22;13349;50.984;5.822;2022-08-23T04:04:15;18.30;1.00
24450;DHT22;13349;50.984;5.822;2022-08-23T04:06:42;18.30;1.00
24450;DHT22;13349;50.984;5.822;2022-08-23T04:09:10;18.40;1.00
24450;DHT22;13349;50.984;5.822;2022-08-23T04:11:39;18.40;1.00
24450;DHT22;13349;50.984;5.822;2022-08-23T04:14:07;18.50;1.00
24450;DHT22;13349;50.984;5.822;2022-08-23T04:16:35;18.50;1.00
24450;DHT22;13349;50.984;5.822;2022-08-23T04:19:03;18.60;1.00
24450;DHT22;13349;50.984;5.822;2022-08-23T04:21:31;18.50;1.00
24450;DHT22;13349;50.984;5.822;2022-08-23T04:23:58;18.50;1.00
24450;DHT22;13349;50.984;5.822;2022-08-23T04:26:26;18.50;1.00
24450;DHT22;13349;50.984;5.822;2022-08-23T04:28:55;18.60;1.00
24450;DHT22;13349;50.984;5.822;2022-08-23T04:31:22;18.50;1.00
24450;DHT22;13349;50.984;5.822;2022-08-23T04:33:51;18.50;1.00
24450;DHT22;13349;50.984;5.822;2022-08-23T04:36:18;18.60;1.00
24450;DHT22;13349;50.984;5.822;2022-08-23T04:38:46;18.60;1.00
24450;DHT22;13349;50.984;5.822;2022-08-23T04:41:14;18.60;1.00
24450;DHT22;13349;50.984;5.822;2022-08-23T04:44:00;18.60;1.00
24450;DHT22;13349;50.984;5.822;2022-08-23T04:46:27;18.60;1.00
24450;DHT22;13349;50.984;5.822;2022-08-23T04:48:54;18.60;1.00
24450;DHT22;13349;50.984;5.822;2022-08-23T04:51:21;18.50;1.00
24450;DHT22;13349;50.984;5.822;2022-08-23T04:53:49;18.50;1.00
24450;DHT22;13349;50.984;5.822;2022-08-23T04:56:16;18.50;1.00
24450;DHT22;13349;50.984;5.822;2022-08-23T04:58:43;18.40;1.00
24450;DHT22;13349;50.984;5.822;2022-08-23T05:01:12;18.50;1.00
24450;DHT22;13349;50.984;5.822;2022-08-23T05:03:41;18.40;1.00
24450;DHT22;13349;50.984;5.822;2022-08-23T05:06:08;18.40;1.00
24450;DHT22;13349;50.984;5.822;2022-08-23T05:08:36;18.50;1.00
24450;DHT22;13349;50.984;5.822;2022-08-23T05:11:04;18.40;1.00
24450;DHT22;13349;50.984;5.822;2022-08-23T05:13:32;18.40;1.00
24450;DHT22;13349;50.984;5.822;2022-08-23T05:16:00;18.40;1.00
24450;DHT22;13349;50.984;5.822;2022-08-23T05:18:28;18.40;1.00
24450;DHT22;13349;50.984;5.822;2022-08-23T05:20:56;18.40;1.00
24450;DHT22;13349;50.984;5.822;2022-08-23T05:23:23;18.50;1.00
24450;DHT22;13349;50.984;5.822;2022-08-23T05:25:51;18.50;1.00
24450;DHT22;13349;50.984;5.822;2022-08-23T05:28:22;18.40;1.00
24450;DHT22;13349;50.984;5.822;2022-08-23T05:30:58;18.40;1.00
24450;DHT22;13349;50.984;5.822;2022-08-23T05:33:25;18.40;1.00
24450;DHT22;13349;50.984;5.822;2022-08-23T05:35:54;18.40;1.00
24450;DHT22;13349;50.984;5.822;2022-08-23T05:38:22;18.40;1.00
24450;DHT22;13349;50.984;5.822;2022-08-23T05:40:51;18.60;1.00
24450;DHT22;13349;50.984;5.822;2022-08-23T05:43:19;19.10;1.00
24450;DHT22;13349;50.984;5.822;2022-08-23T05:45:46;19.60;99.90
24450;DHT22;13349;50.984;5.822;2022-08-23T05:48:15;19.90;99.90
24450;DHT22;13349;50.984;5.822;2022-08-23T05:50:42;19.90;99.90
24450;DHT22;13349;50.984;5.822;2022-08-23T05:53:10;19.90;99.90
24450;DHT22;13349;50.984;5.822;2022-08-23T05:55:37;19.90;99.90
24450;DHT22;13349;50.984;5.822;2022-08-23T05:58:05;19.80;99.90
24450;DHT22;13349;50.984;5.822;2022-08-23T06:00:32;19.80;99.90
24450;DHT22;13349;50.984;5.822;2022-08-23T06:02:59;19.90;96.30
24450;DHT22;13349;50.984;5.822;2022-08-23T06:05:26;19.90;95.70
24450;DHT22;13349;50.984;5.822;2022-08-23T06:07:54;20.00;95.50
24450;DHT22;13349;50.984;5.822;2022-08-23T06:10:23;19.90;99.90
24450;DHT22;13349;50.984;5.822;2022-08-23T06:12:50;19.90;99.80
24450;DHT22;13349;50.984;5.822;2022-08-23T06:15:17;19.70;99.90
24450;DHT22;13349;50.984;5.822;2022-08-23T06:17:45;19.60;99.90
24450;DHT22;13349;50.984;5.822;2022-08-23T06:20:13;19.70;99.90
24450;DHT22;13349;50.984;5.822;2022-08-23T06:22:40;19.80;99.90
24450;DHT22;13349;50.984;5.822;2022-08-23T06:25:08;19.90;99.90
24450;DHT22;13349;50.984;5.822;2022-08-23T06:27:37;20.20;39.20
24450;DHT22;13349;50.984;5.822;2022-08-23T06:30:05;20.40;1.00
24450;DHT22;13349;50.984;5.822;2022-08-23T06:32:33;20.40;1.00
24450;DHT22;13349;50.984;5.822;2022-08-23T06:35:00;20.30;1.00
24450;DHT22;13349;50.984;5.822;2022-08-23T06:37:27;20.30;1.70
24450;DHT22;13349;50.984;5.822;2022-08-23T06:39:54;20.40;1.00
24450;DHT22;13349;50.984;5.822;2022-08-23T06:42:22;20.50;1.00
24450;DHT22;13349;50.984;5.822;2022-08-23T06:44:51;20.60;1.00
24450;DHT22;13349;50.984;5.822;2022-08-23T06:47:19;20.70;1.00
24450;DHT22;13349;50.984;5.822;2022-08-23T06:49:46;20.80;1.00
24450;DHT22;13349;50.984;5.822;2022-08-23T06:52:14;20.90;1.00
24450;DHT22;13349;50.984;5.822;2022-08-23T06:54:41;20.90;1.00
24450;DHT22;13349;50.984;5.822;2022-08-23T06:57:11;20.80;1.00
24450;DHT22;13349;50.984;5.822;2022-08-23T06:59:39;20.90;1.00
24450;DHT22;13349;50.984;5.822;2022-08-23T07:02:08;20.90;1.00
24450;DHT22;13349;50.984;5.822;2022-08-23T07:04:38;21.00;1.00
24450;DHT22;13349;50.984;5.822;2022-08-23T07:07:05;21.10;1.00
24450;DHT22;13349;50.984;5.822;2022-08-23T07:09:33;21.20;1.00
24450;DHT22;13349;50.984;5.822;2022-08-23T07:12:01;21.20;1.00
24450;DHT22;13349;50.984;5.822;2022-08-23T07:14:28;21.30;1.00
24450;DHT22;13349;50.984;5.822;2022-08-23T07:16:58;21.40;1.00
24450;DHT22;13349;50.984;5.822;2022-08-23T07:19:29;21.40;1.00
24450;DHT22;13349;50.984;5.822;2022-08-23T07:21:58;21.40;1.00
24450;DHT22;13349;50.984;5.822;2022-08-23T07:24:26;21.50;1.00
24450;DHT22;13349;50.984;5.822;2022-08-23T07:26:53;21.50;1.00
24450;DHT22;13349;50.984;5.822;2022-08-23T07:29:21;21.60;1.00
24450;DHT22;13349;50.984;5.822;2022-08-23T07:31:50;21.60;1.00
24450;DHT22;13349;50.984;5.822;2022-08-23T07:34:18;21.70;1.00
24450;DHT22;13349;50.984;5.822;2022-08-23T07:36:48;21.80;1.00
24450;DHT22;13349;50.984;5.822;2022-08-23T07:39:19;21.90;1.00
24450;DHT22;13349;50.984;5.822;2022-08-23T07:41:46;22.00;1.00
24450;DHT22;13349;50.984;5.822;2022-08-23T07:44:13;22.00;1.00
24450;DHT22;13349;50.984;5.822;2022-08-23T07:46:43;22.20;1.00
24450;DHT22;13349;50.984;5.822;2022-08-23T07:49:11;22.30;1.00
24450;DHT22;13349;50.984;5.822;2022-08-23T07:51:40;22.40;1.00
24450;DHT22;13349;50.984;5.822;2022-08-23T07:54:10;22.60;1.00
24450;DHT22;13349;50.984;5.822;2022-08-23T07:56:38;22.70;1.00
24450;DHT22;13349;50.984;5.822;2022-08-23T07:59:06;22.70;1.00
24450;DHT22;13349;50.984;5.822;2022-08-23T08:01:34;22.70;1.00
24450;DHT22;13349;50.984;5.822;2022-08-23T08:04:04;22.80;1.00
24450;DHT22;13349;50.984;5.822;2022-08-23T08:06:34;22.90;1.00
24450;DHT22;13349;50.984;5.822;2022-08-23T08:09:02;22.80;1.00
24450;DHT22;13349;50.984;5.822;2022-08-23T08:11:32;22.70;1.00
